Allegheny, Pennsylvania
Current Conditions -  °F | °C
As of 6:53 PM on Sunday 21 Dec 2014 (Local Time) from KAGC Reporting Station
Clear Clear  
Wind Chill: -6°   Ceiling: Unl
Heat Index: -2°   Visibility: 10mi
Dew Point: -7°   Wind: 7mph
Humidity: 67%   Direction: 80°E
Pressure: 30.21"   Gusts: NA
Location:  40.4725°N, 80.0082°W
Report Text: KAGC 212353Z 08006KT 10SM CLR M02/M07 A3021 RMK AO2 SLP250 T10171072 10011 21017 50000
Loading
Personal Weather Stations






























Interactive Weather Map New forecast layout! Learn more

10-Day Weather Forecast

Advertisements
Track Severe Weather on mobile